Time;durP1;ratioP1;P1;durP2;ratioP2;P2;SDS_P1;SDS_P2;PMS_P1;PMS_P2;Temp;Humidity;BMP_temperature;BMP_pressure;BME280_temperature;BME280_humidity;BME280_pressure;Samples;Min_cycle;Max_cycle;Signal;HPM_P1;HPM_P2
2023/06/29 00:00:59;;;;;;;1.97;1.80;;;17.90;94.70;;;;;;5074463;28;20452;-79
2023/06/29 00:03:27;;;;;;;2.70;1.50;;;17.90;94.80;;;;;;5074336;28;20445;-79
2023/06/29 00:05:55;;;;;;;4.83;1.67;;;17.90;94.90;;;;;;5074363;28;20445;-79
2023/06/29 00:08:23;;;;;;;1.23;1.13;;;17.80;95.20;;;;;;5074260;28;20842;-80
2023/06/29 00:10:50;;;;;;;1.50;1.40;;;17.80;95.40;;;;;;5074618;28;20850;-80
2023/06/29 00:13:17;;;;;;;1.47;1.37;;;17.90;95.50;;;;;;5073786;28;21000;-80
2023/06/29 00:15:45;;;;;;;1.40;1.30;;;17.70;95.60;;;;;;5074153;28;20448;-80
2023/06/29 00:18:12;;;;;;;1.47;1.37;;;17.60;95.70;;;;;;5073785;28;20469;-79
2023/06/29 00:20:39;;;;;;;1.40;1.30;;;17.60;95.80;;;;;;5073752;28;20457;-79
2023/06/29 00:23:06;;;;;;;2.27;2.10;;;17.60;95.90;;;;;;5073609;28;20491;-80
2023/06/29 00:25:33;;;;;;;2.10;2.00;;;17.60;96.00;;;;;;5073934;28;20452;-80
2023/06/29 00:28:00;;;;;;;1.93;1.80;;;17.60;96.00;;;;;;5073913;28;20475;-80
2023/06/29 00:30:27;;;;;;;2.40;1.87;;;17.50;96.00;;;;;;5073907;28;20463;-80
2023/06/29 00:32:55;;;;;;;2.90;2.20;;;17.50;96.00;;;;;;5073686;28;20444;-79
2023/06/29 00:35:21;;;;;;;3.67;2.00;;;17.50;96.20;;;;;;5073562;28;20814;-79
2023/06/29 00:37:48;;;;;;;2.60;1.80;;;17.50;96.30;;;;;;5073752;28;20487;-79
2023/06/29 00:40:15;;;;;;;2.30;2.10;;;17.40;96.30;;;;;;5073416;28;20452;-79
2023/06/29 00:42:42;;;;;;;3.70;2.07;;;17.40;96.50;;;;;;5073750;28;20453;-79
2023/06/29 00:45:09;;;;;;;2.07;1.90;;;17.30;96.60;;;;;;5073704;28;20449;-79
2023/06/29 00:47:36;;;;;;;1.70;1.60;;;17.30;96.60;;;;;;5072953;28;20834;-79
2023/06/29 00:50:05;;;;;;;1.90;1.77;;;17.30;96.90;;;;;;5073620;28;20449;-79
2023/06/29 00:52:33;;;;;;;1.60;1.53;;;17.20;97.00;;;;;;5073603;28;20457;-79
2023/06/29 00:55:00;;;;;;;1.70;1.60;;;17.20;97.10;;;;;;5073469;28;20483;-79
2023/06/29 00:57:29;;;;;;;2.40;2.20;;;17.20;97.30;;;;;;5073485;28;20782;-79
2023/06/29 00:59:59;;;;;;;1.93;1.83;;;17.10;97.60;;;;;;5073164;28;20514;-79
2023/06/29 01:02:29;;;;;;;1.73;1.63;;;17.10;97.60;;;;;;5073232;28;20429;-79
2023/06/29 01:04:56;;;;;;;2.30;1.77;;;17.10;97.60;;;;;;5073514;28;20433;-79
2023/06/29 01:07:31;;;;;;;1.83;1.57;;;17.10;97.80;;;;;;5073053;28;20445;-80
2023/06/29 01:09:59;;;;;;;4.00;1.50;;;17.10;98.10;;;;;;5073149;28;20428;-79
2023/06/29 01:12:27;;;;;;;2.20;2.00;;;17.10;98.30;;;;;;5073363;28;20449;-79
2023/06/29 01:14:55;;;;;;;3.07;2.23;;;17.10;98.30;;;;;;5074085;28;20493;-79
2023/06/29 01:17:26;;;;;;;1.77;1.67;;;17.10;98.40;;;;;;5073331;28;20452;-79
2023/06/29 01:19:54;;;;;;;2.03;1.90;;;17.10;98.60;;;;;;5073859;28;20441;-79
2023/06/29 01:22:27;;;;;;;5.60;2.27;;;17.10;98.60;;;;;;5072941;28;20481;-79
2023/06/29 01:24:55;;;;;;;3.20;1.80;;;17.10;98.80;;;;;;5073288;28;20425;-80
2023/06/29 01:27:22;;;;;;;5.60;2.07;;;17.10;99.00;;;;;;5073218;28;20451;-80
2023/06/29 01:29:55;;;;;;;5.77;2.67;;;17.00;99.20;;;;;;5073219;28;20456;-80
2023/06/29 01:32:31;;;;;;;2.57;1.57;;;17.00;99.50;;;;;;5073248;28;20473;-79
2023/06/29 01:34:58;;;;;;;3.03;2.20;;;17.00;99.70;;;;;;5072801;28;20464;-79
2023/06/29 01:37:29;;;;;;;2.70;1.80;;;17.00;99.80;;;;;;5073573;28;20507;-79
2023/06/29 01:40:00;;;;;;;2.63;2.10;;;16.90;99.90;;;;;;5072838;28;20433;-79
2023/06/29 01:42:29;;;;;;;4.30;1.93;;;16.90;99.90;;;;;;5072819;28;20912;-79
2023/06/29 01:44:56;;;;;;;1.70;1.60;;;16.80;99.90;;;;;;5073837;28;20448;-79
2023/06/29 01:47:23;;;;;;;2.37;2.17;;;16.80;99.90;;;;;;5072940;28;20449;-79
2023/06/29 01:49:50;;;;;;;2.87;2.40;;;16.70;99.90;;;;;;5072700;28;20975;-79
2023/06/29 01:52:17;;;;;;;2.07;1.97;;;16.70;99.90;;;;;;5073035;28;20433;-79
2023/06/29 01:54:44;;;;;;;4.10;2.10;;;16.70;99.90;;;;;;5072518;28;20480;-79
2023/06/29 01:57:13;;;;;;;2.47;2.37;;;16.70;99.90;;;;;;5072612;28;20799;-79
2023/06/29 01:59:40;;;;;;;1.93;1.83;;;16.70;99.90;;;;;;5074134;28;20525;-79
2023/06/29 02:02:08;;;;;;;3.67;2.83;;;16.60;99.90;;;;;;5076792;28;20440;-79
2023/06/29 02:04:34;;;;;;;2.80;1.93;;;16.60;99.90;;;;;;5076690;28;20445;-79
2023/06/29 02:07:01;;;;;;;2.57;2.30;;;16.60;99.90;;;;;;5076323;28;20948;-79
2023/06/29 02:09:28;;;;;;;6.50;2.97;;;16.50;99.90;;;;;;5076203;28;20468;-79
2023/06/29 02:11:55;;;;;;;3.30;2.13;;;16.50;99.90;;;;;;5076519;28;20456;-79
2023/06/29 02:14:23;;;;;;;3.30;2.53;;;16.50;99.90;;;;;;5076457;28;20484;-79
2023/06/29 02:16:52;;;;;;;2.57;2.37;;;16.50;99.90;;;;;;5076185;28;20957;-79
2023/06/29 02:19:18;;;;;;;2.50;2.30;;;16.40;99.90;;;;;;5076370;28;20467;-79
2023/06/29 02:21:45;;;;;;;3.53;2.30;;;16.40;99.90;;;;;;5076092;28;20481;-79
2023/06/29 02:24:12;;;;;;;3.70;2.43;;;16.40;99.90;;;;;;5075955;28;20783;-79
2023/06/29 02:26:39;;;;;;;2.60;2.40;;;16.40;99.90;;;;;;5076278;28;20452;-80
2023/06/29 02:29:06;;;;;;;2.73;2.53;;;16.40;99.90;;;;;;5075869;28;21063;-80
2023/06/29 02:31:34;;;;;;;2.67;2.27;;;16.40;99.90;;;;;;5076266;28;20449;-79
2023/06/29 02:34:00;;;;;;;2.13;1.93;;;16.30;99.90;;;;;;5075792;28;20476;-79
2023/06/29 02:36:27;;;;;;;4.00;2.57;;;16.30;99.90;;;;;;5076128;28;20444;-79
2023/06/29 02:38:54;;;;;;;2.20;2.10;;;16.20;99.90;;;;;;5075666;28;20837;-79
2023/06/29 02:41:20;;;;;;;2.80;2.20;;;16.30;99.90;;;;;;5076025;28;20440;-79
2023/06/29 02:43:47;;;;;;;5.03;2.73;;;16.20;99.90;;;;;;5075662;28;20455;-79
2023/06/29 02:46:15;;;;;;;4.30;2.93;;;16.30;99.90;;;;;;5075915;28;20453;-79
2023/06/29 02:48:43;;;;;;;2.03;1.83;;;16.30;99.90;;;;;;5075836;28;20457;-79
2023/06/29 02:51:10;;;;;;;2.53;2.43;;;16.30;99.90;;;;;;5075902;28;20444;-79
2023/06/29 02:53:36;;;;;;;2.57;2.17;;;16.30;99.90;;;;;;5075771;28;20449;-79
2023/06/29 02:56:03;;;;;;;1.90;1.80;;;16.20;99.90;;;;;;5075447;28;20842;-79
2023/06/29 02:58:30;;;;;;;2.70;2.40;;;16.20;99.90;;;;;;5075596;28;20473;-79
2023/06/29 03:00:57;;;;;;;4.47;2.90;;;16.20;99.90;;;;;;5075383;28;20448;-79
2023/06/29 03:03:23;;;;;;;2.53;2.33;;;16.20;99.90;;;;;;5075328;28;20451;-79
2023/06/29 03:05:51;;;;;;;3.10;2.90;;;16.20;99.90;;;;;;5075609;28;20445;-79
2023/06/29 03:08:18;;;;;;;5.37;2.93;;;16.10;99.90;;;;;;5075484;28;20472;-79
2023/06/29 03:10:45;;;;;;;3.13;2.30;;;16.10;99.90;;;;;;5075259;28;20445;-79
2023/06/29 03:13:12;;;;;;;4.30;2.80;;;16.10;99.90;;;;;;5075448;28;20449;-79
2023/06/29 03:15:38;;;;;;;2.73;2.53;;;16.00;99.90;;;;;;5075364;28;20862;-79
2023/06/29 03:18:05;;;;;;;2.80;2.40;;;16.00;99.90;;;;;;5074966;28;20940;-80
2023/06/29 03:20:32;;;;;;;6.10;2.70;;;16.00;99.90;;;;;;5075306;28;20448;-80
2023/06/29 03:23:00;;;;;;;2.50;2.40;;;16.00;99.90;;;;;;5074850;28;20475;-79
2023/06/29 03:25:27;;;;;;;1.90;1.80;;;16.00;99.90;;;;;;5074872;28;20819;-79
2023/06/29 03:27:53;;;;;;;4.40;2.83;;;16.00;99.90;;;;;;5075124;28;20465;-79
2023/06/29 03:30:20;;;;;;;2.57;2.20;;;15.90;99.90;;;;;;5074783;28;20793;-79
2023/06/29 03:32:47;;;;;;;3.97;3.10;;;15.90;99.90;;;;;;5075025;28;20447;-79
2023/06/29 03:35:14;;;;;;;4.33;2.73;;;15.90;99.90;;;;;;5074936;28;20488;-79
2023/06/29 03:37:40;;;;;;;3.53;3.10;;;15.90;99.90;;;;;;5074866;28;20449;-79
2023/06/29 03:40:10;;;;;;;6.57;2.77;;;15.90;99.90;;;;;;5074564;28;20928;-79
2023/06/29 03:42:36;;;;;;;4.90;3.13;;;15.90;99.90;;;;;;5074999;28;20444;-79
2023/06/29 03:45:03;;;;;;;2.20;2.00;;;15.90;99.90;;;;;;5074809;28;20445;-79
2023/06/29 03:47:30;;;;;;;4.83;3.30;;;16.00;99.90;;;;;;5074378;28;20448;-79
2023/06/29 03:49:57;;;;;;;2.63;2.43;;;16.00;99.90;;;;;;5074694;28;20456;-79
2023/06/29 03:52:23;;;;;;;7.33;3.30;;;16.00;99.90;;;;;;5074367;28;20964;-79
2023/06/29 03:54:50;;;;;;;2.60;2.40;;;16.00;99.90;;;;;;5074506;28;20481;-79
2023/06/29 03:57:18;;;;;;;3.57;2.40;;;16.10;99.90;;;;;;5074566;28;20445;-79
2023/06/29 03:59:45;;;;;;;5.70;3.43;;;16.10;99.90;;;;;;5074455;28;20461;-79
2023/06/29 04:02:12;;;;;;;4.50;2.90;;;16.10;99.90;;;;;;5074130;28;20840;-79
2023/06/29 04:04:38;;;;;;;2.40;2.30;;;16.20;99.90;;;;;;5075219;28;20441;-79
2023/06/29 04:07:05;;;;;;;2.40;2.20;;;16.20;99.90;;;;;;5074066;28;20945;-79
2023/06/29 04:09:32;;;;;;;4.10;2.27;;;16.30;99.90;;;;;;5074242;28;20472;-79
2023/06/29 04:11:59;;;;;;;5.47;3.33;;;16.30;99.90;;;;;;5074289;28;20480;-79
2023/06/29 04:14:27;;;;;;;3.60;2.83;;;16.40;99.90;;;;;;5074190;28;20473;-79
2023/06/29 04:16:53;;;;;;;2.33;2.13;;;16.40;99.90;;;;;;5073905;28;20905;-79
2023/06/29 04:19:20;;;;;;;3.30;2.47;;;16.50;99.90;;;;;;5074080;28;20469;-79
2023/06/29 04:21:47;;;;;;;2.83;2.63;;;16.60;99.90;;;;;;5073242;28;20484;-79
2023/06/29 04:24:14;;;;;;;2.90;2.17;;;16.60;99.90;;;;;;5073755;28;20433;-79
2023/06/29 04:26:41;;;;;;;4.10;3.63;;;16.60;99.90;;;;;;5073680;28;20886;-79
2023/06/29 04:29:07;;;;;;;5.67;2.40;;;16.70;99.90;;;;;;5073869;28;20464;-79
2023/06/29 04:31:35;;;;;;;3.30;2.73;;;16.70;99.90;;;;;;5073910;28;20441;-79
2023/06/29 04:34:03;;;;;;;3.60;3.13;;;16.80;99.90;;;;;;5073875;28;20445;-79
2023/06/29 04:36:30;;;;;;;3.07;2.77;;;16.80;99.90;;;;;;5073807;28;20481;-79
2023/06/29 04:38:56;;;;;;;2.87;2.67;;;16.90;99.90;;;;;;5073748;28;20469;-79
2023/06/29 04:41:30;;;;;;;2.53;2.33;;;16.90;99.90;;;;;;5073806;28;20448;-79
2023/06/29 04:43:58;;;;;;;2.73;2.53;;;17.00;99.90;;;;;;5073852;28;20441;-79
2023/06/29 04:46:24;;;;;;;3.70;2.87;;;17.00;99.90;;;;;;5073706;28;20812;-79
2023/06/29 04:48:52;;;;;;;2.83;2.50;;;17.10;99.90;;;;;;5073603;28;20475;-79
2023/06/29 04:51:19;;;;;;;2.70;2.50;;;17.20;99.90;;;;;;5073662;28;20456;-79
2023/06/29 04:53:46;;;;;;;3.83;3.53;;;17.20;99.90;;;;;;5073206;28;20448;-79
2023/06/29 04:56:13;;;;;;;4.90;2.97;;;17.20;99.90;;;;;;5073510;28;20492;-79
2023/06/29 04:58:40;;;;;;;7.50;3.13;;;17.30;99.90;;;;;;5073174;28;20984;-79
2023/06/29 05:01:07;;;;;;;3.70;3.30;;;17.30;99.90;;;;;;5073541;28;20449;-79
2023/06/29 05:03:35;;;;;;;3.07;2.87;;;17.40;99.90;;;;;;5073476;28;20448;-79
2023/06/29 05:06:03;;;;;;;6.10;3.33;;;17.40;99.90;;;;;;5073130;28;20449;-80
2023/06/29 05:08:30;;;;;;;8.60;3.00;;;17.50;99.90;;;;;;5073346;28;20473;-80
2023/06/29 05:10:57;;;;;;;3.07;2.53;;;17.50;99.90;;;;;;5073089;28;20792;-79
2023/06/29 05:13:24;;;;;;;8.00;2.83;;;17.50;99.90;;;;;;5073388;28;20460;-79
2023/06/29 05:15:50;;;;;;;2.77;2.57;;;17.60;99.90;;;;;;5073282;28;20503;-80
2023/06/29 05:18:17;;;;;;;3.10;2.73;;;17.70;99.90;;;;;;5072908;28;20478;-79
2023/06/29 05:20:44;;;;;;;3.13;2.63;;;17.90;99.90;;;;;;5073310;28;20449;-79
2023/06/29 05:23:12;;;;;;;2.77;2.57;;;17.90;99.90;;;;;;5072835;28;20476;-79
2023/06/29 05:25:39;;;;;;;3.87;2.73;;;17.90;99.90;;;;;;5072928;28;20936;-79
2023/06/29 05:28:06;;;;;;;4.67;2.40;;;18.00;99.90;;;;;;5073159;28;20563;-79
2023/06/29 05:30:34;;;;;;;3.13;2.83;;;18.10;99.90;;;;;;5073650;28;20461;-79
2023/06/29 05:33:00;;;;;;;2.70;2.50;;;18.20;99.90;;;;;;5073169;28;20453;-80
2023/06/29 05:35:27;;;;;;;3.83;3.47;;;18.30;99.90;;;;;;5088005;28;21003;-80
2023/06/29 05:37:54;;;;;;;2.27;2.17;;;18.40;99.90;;;;;;5097505;28;20483;-80
2023/06/29 05:40:22;;;;;;;3.10;2.90;;;18.50;99.90;;;;;;5097506;28;20471;-80
2023/06/29 05:42:49;;;;;;;4.00;3.60;;;18.60;99.90;;;;;;5097124;28;20448;-80
2023/06/29 05:45:15;;;;;;;2.40;2.20;;;18.70;99.90;;;;;;5097387;28;20589;-80
2023/06/29 05:47:42;;;;;;;1.67;1.50;;;18.80;99.90;;;;;;5097290;28;20444;-80
2023/06/29 05:50:09;;;;;;;4.87;2.27;;;18.80;99.90;;;;;;5097328;28;20452;-80
2023/06/29 05:52:37;;;;;;;1.83;1.73;;;18.90;99.90;;;;;;5096922;28;20444;-80
2023/06/29 05:55:04;;;;;;;2.23;1.90;;;19.10;99.90;;;;;;5097096;28;20529;-80
2023/06/29 05:57:32;;;;;;;1.23;1.13;;;19.10;99.90;;;;;;5097038;28;20444;-79
2023/06/29 06:00:00;;;;;;;1.80;1.70;;;19.20;99.90;;;;;;5097083;28;20451;-79
2023/06/29 06:02:27;;;;;;;1.60;1.50;;;19.40;99.90;;;;;;5096732;28;20452;-79
2023/06/29 06:04:54;;;;;;;1.90;1.67;;;19.50;99.90;;;;;;5097023;28;20447;-79
2023/06/29 06:07:28;;;;;;;1.60;1.50;;;19.60;99.90;;;;;;5096982;28;20534;-80
2023/06/29 06:09:55;;;;;;;2.80;2.20;;;19.60;99.90;;;;;;5096643;28;20923;-80
2023/06/29 06:12:22;;;;;;;2.50;2.00;;;19.70;99.90;;;;;;5096501;28;20443;-80
2023/06/29 06:14:50;;;;;;;1.73;1.63;;;20.00;99.90;;;;;;5096403;28;20452;-80
2023/06/29 06:17:17;;;;;;;1.63;1.50;;;20.30;99.90;;;;;;5096794;28;20447;-80
2023/06/29 06:19:44;;;;;;;1.57;1.37;;;20.50;99.90;;;;;;5096693;28;20486;-80
2023/06/29 06:22:11;;;;;;;2.63;1.80;;;20.80;99.90;;;;;;5096393;28;20471;-80
2023/06/29 06:24:38;;;;;;;3.07;1.90;;;21.00;99.90;;;;;;5096361;28;20955;-80
2023/06/29 06:27:05;;;;;;;3.23;1.90;;;21.20;99.90;;;;;;5096579;28;20464;-80
2023/06/29 06:29:32;;;;;;;1.67;1.57;;;21.70;99.90;;;;;;5096507;28;20541;-80
2023/06/29 06:32:00;;;;;;;1.60;1.50;;;22.10;99.90;;;;;;5096175;28;20443;-80
2023/06/29 06:34:30;;;;;;;3.07;1.20;;;22.40;99.90;;;;;;5096461;28;20444;-80
2023/06/29 06:36:58;;;;;;;1.93;1.40;;;22.60;99.90;;;;;;5096626;28;20206;-80
2023/06/29 06:39:24;;;;;;;1.60;1.50;;;22.60;99.90;;;;;;5096185;28;20221;-80
2023/06/29 06:41:51;;;;;;;1.87;1.33;;;22.60;99.90;;;;;;5096107;28;20665;-80
2023/06/29 06:44:18;;;;;;;1.65;1.55;;;22.80;99.30;;;;;;5096363;28;20192;-80
2023/06/29 06:46:45;;;;;;;2.38;1.80;;;23.40;98.80;;;;;;5095348;28;20695;-80
2023/06/29 06:49:13;;;;;;;1.52;1.48;;;23.80;97.90;;;;;;5096100;28;20243;-80
2023/06/29 06:51:40;;;;;;;2.00;1.77;;;24.00;97.10;;;;;;5096197;28;20201;-80
2023/06/29 06:54:06;;;;;;;1.30;1.20;;;24.00;96.80;;;;;;5096192;28;20209;-80
2023/06/29 06:56:33;;;;;;;2.45;1.40;;;24.00;96.60;;;;;;5095749;28;20208;-80
2023/06/29 06:59:00;;;;;;;1.70;1.60;;;24.00;96.80;;;;;;5095917;28;20589;-80
2023/06/29 07:01:27;;;;;;;2.50;1.90;;;24.20;96.10;;;;;;5095743;28;20680;-80
2023/06/29 07:03:54;;;;;;;2.20;1.80;;;24.10;95.80;;;;;;5095598;28;20229;-80
2023/06/29 07:06:22;;;;;;;3.58;1.85;;;24.10;95.70;;;;;;5095849;28;20202;-80
2023/06/29 07:08:49;;;;;;;2.25;1.38;;;24.00;96.00;;;;;;5095754;28;20585;-80
2023/06/29 07:11:15;;;;;;;1.65;1.55;;;24.00;95.30;;;;;;5095802;28;20205;-80
2023/06/29 07:13:42;;;;;;;1.70;1.60;;;24.00;94.80;;;;;;5095750;28;20209;-80
2023/06/29 07:16:09;;;;;;;1.50;1.40;;;23.60;93.90;;;;;;5095558;28;20221;-80
2023/06/29 07:18:36;;;;;;;1.10;1.10;;;23.70;94.70;;;;;;5095307;28;20712;-80
2023/06/29 07:21:03;;;;;;;2.05;1.83;;;23.90;94.50;;;;;;5095452;28;20233;-80
2023/06/29 07:23:31;;;;;;;1.67;1.58;;;23.90;94.40;;;;;;5095478;28;20254;-80
2023/06/29 07:25:58;;;;;;;1.65;1.15;;;24.10;94.90;;;;;;5095123;28;20573;-80
2023/06/29 07:28:25;;;;;;;1.90;1.80;;;24.40;94.70;;;;;;5095400;28;20225;-80
2023/06/29 07:30:51;;;;;;;1.80;1.70;;;24.40;94.20;;;;;;5095395;28;20574;-80
2023/06/29 07:33:18;;;;;;;4.32;1.75;;;24.60;94.50;;;;;;5095006;28;20205;-80
2023/06/29 07:35:45;;;;;;;1.70;1.60;;;25.00;94.50;;;;;;5095218;28;20217;-80
2023/06/29 07:38:12;;;;;;;1.50;1.40;;;25.50;92.80;;;;;;5095217;28;20586;-80
2023/06/29 07:40:40;;;;;;;1.88;1.77;;;25.80;92.40;;;;;;5095109;28;20303;-79
2023/06/29 07:43:07;;;;;;;1.30;1.20;;;25.90;92.60;;;;;;5095176;28;20216;-80
2023/06/29 07:45:34;;;;;;;1.27;1.27;;;26.00;92.30;;;;;;5094889;28;20571;-80
2023/06/29 07:48:00;;;;;;;3.72;1.15;;;26.20;91.10;;;;;;5094996;28;20217;-80
2023/06/29 07:50:27;;;;;;;1.63;1.52;;;26.30;91.30;;;;;;5094710;28;20295;-80
2023/06/29 07:52:54;;;;;;;1.88;1.52;;;26.20;90.70;;;;;;5094929;28;20208;-80
2023/06/29 07:55:20;;;;;;;1.20;1.20;;;26.30;90.90;;;;;;5094810;28;20201;-80
2023/06/29 07:57:49;;;;;;;1.42;1.33;;;26.30;90.30;;;;;;5093495;28;20236;-79
2023/06/29 08:00:16;;;;;;;1.27;1.17;;;26.50;90.20;;;;;;5094756;28;20229;-79
2023/06/29 08:02:43;;;;;;;1.20;1.10;;;26.40;87.60;;;;;;5094969;28;20202;-81
2023/06/29 08:05:10;;;;;;;1.63;1.52;;;26.40;89.00;;;;;;5094715;28;20247;-79
2023/06/29 08:07:37;;;;;;;1.52;1.42;;;26.20;88.20;;;;;;5094611;28;20201;-79
2023/06/29 08:10:04;;;;;;;1.30;1.20;;;26.30;88.90;;;;;;5094232;28;20688;-79
2023/06/29 08:12:30;;;;;;;1.75;1.30;;;26.30;88.70;;;;;;5094591;28;20205;-79
2023/06/29 08:14:59;;;;;;;1.75;1.40;;;26.10;87.90;;;;;;5094237;28;20676;-78
2023/06/29 08:17:25;;;;;;;1.27;1.17;;;26.00;87.50;;;;;;5094321;28;20225;-78
2023/06/29 08:19:52;;;;;;;1.17;1.17;;;25.90;88.10;;;;;;5094459;28;20205;-79
2023/06/29 08:22:19;;;;;;;2.53;1.52;;;25.70;88.70;;;;;;5093856;28;20742;-79
2023/06/29 08:24:45;;;;;;;1.10;1.10;;;25.50;89.10;;;;;;5094343;28;20209;-79
2023/06/29 08:27:12;;;;;;;2.55;1.40;;;25.40;88.50;;;;;;5093990;28;20687;-79
2023/06/29 08:29:39;;;;;;;1.05;0.95;;;25.30;86.30;;;;;;5094083;28;20231;-79
2023/06/29 08:32:09;;;;;;;1.13;1.13;;;25.20;86.80;;;;;;5094240;28;20208;-79
2023/06/29 08:34:36;;;;;;;1.00;1.00;;;25.10;88.30;;;;;;5094174;28;20201;-79
2023/06/29 08:37:03;;;;;;;1.27;1.10;;;25.10;88.20;;;;;;5093767;28;20221;-79
2023/06/29 08:39:30;;;;;;;1.30;1.20;;;25.10;88.00;;;;;;5094035;28;20217;-79
2023/06/29 08:41:56;;;;;;;1.98;1.33;;;25.20;86.40;;;;;;5094235;28;20197;-79
2023/06/29 08:44:23;;;;;;;1.50;0.93;;;25.40;87.60;;;;;;5093997;28;20198;-79
2023/06/29 08:46:51;;;;;;;1.15;1.10;;;25.70;85.00;;;;;;5093856;28;20194;-79
2023/06/29 08:49:21;;;;;;;1.10;1.00;;;26.00;85.00;;;;;;5093841;28;20596;-79
2023/06/29 08:51:52;;;;;;;0.90;0.90;;;26.20;82.70;;;;;;5094452;28;20212;-79
2023/06/29 08:54:19;;;;;;;1.27;1.17;;;26.50;81.00;;;;;;5093858;28;20238;-79
2023/06/29 08:56:47;;;;;;;0.95;0.95;;;26.80;79.90;;;;;;5093340;28;20221;-79
2023/06/29 08:59:15;;;;;;;0.82;0.82;;;27.20;77.80;;;;;;5093453;28;20217;-79
2023/06/29 09:01:42;;;;;;;1.30;1.20;;;27.00;77.60;;;;;;5093645;28;20210;-79
2023/06/29 09:04:09;;;;;;;1.33;1.23;;;27.40;79.70;;;;;;5093682;28;20209;-79
2023/06/29 09:06:37;;;;;;;0.90;0.90;;;27.40;77.30;;;;;;5093677;28;20201;-79
2023/06/29 09:09:06;;;;;;;1.00;1.00;;;27.60;77.80;;;;;;5093405;28;20289;-79
2023/06/29 09:11:35;;;;;;;1.40;0.90;;;27.50;74.30;;;;;;5093579;28;20204;-79
2023/06/29 09:14:05;;;;;;;0.90;0.90;;;27.80;73.60;;;;;;5093645;28;20619;-79
2023/06/29 09:16:31;;;;;;;2.90;1.00;;;27.80;72.00;;;;;;5093231;28;20206;-79
2023/06/29 09:18:59;;;;;;;1.10;1.10;;;27.70;74.40;;;;;;5093535;28;20257;-79
2023/06/29 09:21:28;;;;;;;1.70;0.95;;;27.70;73.10;;;;;;5093060;28;20565;-80
2023/06/29 09:23:59;;;;;;;3.47;1.23;;;27.50;73.10;;;;;;5093369;28;20205;-80
2023/06/29 09:26:27;;;;;;;1.27;1.17;;;27.30;73.60;;;;;;5093407;28;20193;-79
2023/06/29 09:28:58;;;;;;;1.40;0.80;;;27.30;73.50;;;;;;5093299;28;20228;-80
2023/06/29 09:31:26;;;;;;;1.05;0.90;;;27.50;72.40;;;;;;5093460;28;20234;-79
2023/06/29 09:33:53;;;;;;;2.47;1.23;;;27.60;71.80;;;;;;5093286;28;20213;-79
2023/06/29 09:36:25;;;;;;;0.93;0.93;;;27.80;72.60;;;;;;5093312;28;20217;-77
2023/06/29 09:38:54;;;;;;;1.38;1.00;;;27.90;71.70;;;;;;5093272;28;20232;-78
2023/06/29 09:41:23;;;;;;;2.58;1.17;;;28.10;71.20;;;;;;5093294;28;20211;-80
2023/06/29 09:43:53;;;;;;;1.60;1.40;;;28.10;71.20;;;;;;5093478;28;20201;-80
2023/06/29 09:46:20;;;;;;;0.80;0.80;;;28.30;71.30;;;;;;5093279;28;20192;-79
2023/06/29 09:48:48;;;;;;;0.80;0.80;;;28.40;73.70;;;;;;5093210;28;20570;-80
2023/06/29 09:51:20;;;;;;;1.50;1.00;;;28.70;71.80;;;;;;5093228;28;20206;-80
2023/06/29 09:53:48;;;;;;;1.10;1.00;;;28.60;69.00;;;;;;5093194;28;20185;-80
2023/06/29 09:56:17;;;;;;;1.52;0.95;;;28.50;69.80;;;;;;5093134;28;20232;-79
2023/06/29 09:58:45;;;;;;;0.88;0.73;;;28.50;70.50;;;;;;5092778;28;20230;-79
2023/06/29 10:01:12;;;;;;;1.17;1.08;;;28.60;71.40;;;;;;5093229;28;20287;-79
2023/06/29 10:03:39;;;;;;;0.85;0.85;;;28.80;69.00;;;;;;5093134;28;20575;-79
2023/06/29 10:06:12;;;;;;;1.30;1.20;;;28.80;69.40;;;;;;5092961;28;20199;-79
2023/06/29 10:08:41;;;;;;;1.40;1.40;;;28.70;70.00;;;;;;5093081;28;20222;-80
2023/06/29 10:11:08;;;;;;;1.58;1.17;;;28.70;70.10;;;;;;5093093;28;20659;-80
2023/06/29 10:13:39;;;;;;;3.55;1.20;;;28.60;71.20;;;;;;5093295;28;20194;-79
2023/06/29 10:16:11;;;;;;;1.58;1.48;;;28.40;70.70;;;;;;5092981;28;20194;-80
2023/06/29 10:18:41;;;;;;;1.13;1.10;;;28.20;70.30;;;;;;5093035;28;20210;-80
2023/06/29 10:21:09;;;;;;;0.75;0.75;;;28.10;70.50;;;;;;5094946;28;20205;-80
2023/06/29 10:23:37;;;;;;;2.38;0.90;;;28.00;70.50;;;;;;5096396;28;20189;-79
2023/06/29 10:26:05;;;;;;;1.25;1.15;;;28.00;70.40;;;;;;5096673;28;20212;-80
2023/06/29 10:28:34;;;;;;;1.73;1.10;;;28.00;70.20;;;;;;5096200;28;20725;-80
2023/06/29 10:31:01;;;;;;;1.60;1.27;;;28.10;70.70;;;;;;5096589;28;20198;-80
2023/06/29 10:33:29;;;;;;;1.10;1.00;;;28.10;70.00;;;;;;5096396;28;20661;-80
2023/06/29 10:35:57;;;;;;;1.80;1.25;;;28.10;70.00;;;;;;5096489;28;20208;-80
2023/06/29 10:38:31;;;;;;;4.10;1.20;;;28.00;69.50;;;;;;5095960;28;20825;-79
2023/06/29 10:40:58;;;;;;;0.90;0.90;;;28.00;70.40;;;;;;5096396;28;20273;-79
2023/06/29 10:43:26;;;;;;;1.20;1.20;;;28.10;70.90;;;;;;5096058;28;20181;-80
2023/06/29 10:45:53;;;;;;;0.98;0.98;;;28.20;69.10;;;;;;5096297;28;20202;-79
2023/06/29 10:48:21;;;;;;;1.55;1.17;;;28.40;68.80;;;;;;5096135;28;20236;-79
2023/06/29 10:50:50;;;;;;;1.02;1.02;;;28.40;68.70;;;;;;5095915;28;20691;-80
2023/06/29 10:53:18;;;;;;;1.75;1.50;;;28.30;68.20;;;;;;5095905;28;20581;-80
2023/06/29 10:55:47;;;;;;;1.25;1.20;;;28.40;68.80;;;;;;5096078;28;20201;-80
2023/06/29 10:58:17;;;;;;;1.00;1.00;;;28.50;70.40;;;;;;5096374;28;20225;-79
2023/06/29 11:00:43;;;;;;;0.88;0.88;;;28.60;69.70;;;;;;5095662;28;20229;-80
2023/06/29 11:03:11;;;;;;;1.83;1.10;;;28.80;69.00;;;;;;5095551;28;20202;-80
2023/06/29 11:05:38;;;;;;;1.65;1.33;;;29.00;69.10;;;;;;5095838;28;20206;-80
2023/06/29 11:08:08;;;;;;;1.25;1.25;;;29.10;67.50;;;;;;5095802;28;20718;-81
2023/06/29 11:10:35;;;;;;;3.78;1.88;;;29.30;67.90;;;;;;5095871;28;20556;-80
2023/06/29 11:13:07;;;;;;;1.48;1.38;;;29.50;67.10;;;;;;5095735;28;20229;-80
2023/06/29 11:15:34;;;;;;;1.50;1.30;;;29.70;66.70;;;;;;5095772;28;20535;-80
2023/06/29 11:18:04;;;;;;;3.67;1.55;;;29.60;66.30;;;;;;5095523;28;20302;-80
2023/06/29 11:20:31;;;;;;;1.92;1.55;;;29.40;67.20;;;;;;5095606;28;20212;-81
2023/06/29 11:22:59;;;;;;;1.70;1.35;;;29.10;67.10;;;;;;5095131;28;20225;-80
2023/06/29 11:25:28;;;;;;;1.60;1.50;;;29.00;68.60;;;;;;5095508;28;20203;-80
2023/06/29 11:27:55;;;;;;;1.45;1.35;;;28.80;70.50;;;;;;5095116;28;20779;-81
2023/06/29 11:30:22;;;;;;;6.32;1.77;;;28.70;68.10;;;;;;5095175;28;20224;-80
2023/06/29 11:32:51;;;;;;;2.35;1.65;;;28.70;68.60;;;;;;5095320;28;20248;-80
2023/06/29 11:35:21;;;;;;;1.48;1.25;;;28.70;69.90;;;;;;5095379;28;20209;-80
2023/06/29 11:37:48;;;;;;;1.85;1.60;;;28.80;70.40;;;;;;5095126;28;20230;-80
2023/06/29 11:40:21;;;;;;;1.60;1.50;;;28.90;70.00;;;;;;5095280;28;20203;-80
2023/06/29 11:42:50;;;;;;;1.92;1.40;;;29.10;69.50;;;;;;5095129;28;20203;-80
2023/06/29 11:45:17;;;;;;;1.80;1.70;;;29.10;68.90;;;;;;5095118;28;20207;-80
2023/06/29 11:47:46;;;;;;;2.72;1.55;;;29.20;68.60;;;;;;5095056;28;21820;-80
2023/06/29 11:50:13;;;;;;;3.60;1.80;;;29.20;67.80;;;;;;5095027;28;20205;-80
2023/06/29 11:52:41;;;;;;;2.58;2.33;;;28.80;67.60;;;;;;5094982;28;20206;-80
2023/06/29 11:55:13;;;;;;;2.20;2.00;;;28.80;68.60;;;;;;5094950;28;20206;-80
2023/06/29 11:57:41;;;;;;;1.92;1.73;;;28.80;68.70;;;;;;5094546;28;20573;-80
2023/06/29 12:00:30;;;;;;;1.67;1.58;;;28.80;69.60;;;;;;5094836;28;20267;-80
2023/06/29 12:02:57;;;;;;;2.03;1.80;;;28.90;70.50;;;;;;5094819;28;20194;-80
2023/06/29 12:05:28;;;;;;;2.67;1.42;;;28.90;69.30;;;;;;5094777;28;20208;-80
2023/06/29 12:07:55;;;;;;;2.78;1.63;;;28.80;69.10;;;;;;5094674;28;20263;-80
2023/06/29 12:10:23;;;;;;;1.98;1.63;;;28.80;69.60;;;;;;5094636;28;20204;-80
2023/06/29 12:12:55;;;;;;;2.83;1.80;;;28.80;69.20;;;;;;5095481;28;20210;-80
2023/06/29 12:15:24;;;;;;;2.38;2.17;;;28.70;69.50;;;;;;5094578;28;20187;-80
2023/06/29 12:17:53;;;;;;;3.03;1.95;;;28.70;68.70;;;;;;5094052;28;20763;-80
2023/06/29 12:20:22;;;;;;;2.08;1.88;;;28.60;70.00;;;;;;5094658;28;20205;-80
2023/06/29 12:22:51;;;;;;;2.90;1.92;;;28.40;70.10;;;;;;5094017;28;20226;-80
2023/06/29 12:25:19;;;;;;;2.67;1.85;;;28.50;70.40;;;;;;5094396;28;20189;-80
2023/06/29 12:27:48;;;;;;;1.58;1.48;;;28.60;70.60;;;;;;5093955;28;20654;-80
2023/06/29 12:30:20;;;;;;;1.85;1.75;;;28.70;69.90;;;;;;5094293;28;20253;-80
2023/06/29 12:32:47;;;;;;;2.00;1.77;;;28.80;69.40;;;;;;5094221;28;20191;-79
2023/06/29 12:35:16;;;;;;;2.13;1.67;;;28.80;69.70;;;;;;5093970;28;20221;-79
2023/06/29 12:37:44;;;;;;;2.85;1.58;;;28.80;70.00;;;;;;5093786;28;20236;-79
2023/06/29 12:40:13;;;;;;;1.65;1.50;;;28.80;70.90;;;;;;5094065;28;20202;-79
2023/06/29 12:42:39;;;;;;;1.20;1.20;;;28.80;71.00;;;;;;5093706;28;20198;-80
2023/06/29 12:45:08;;;;;;;1.35;1.25;;;28.80;71.30;;;;;;5094056;28;20209;-80
2023/06/29 12:47:34;;;;;;;1.52;1.42;;;28.70;72.10;;;;;;5093943;28;20197;-80
2023/06/29 12:50:01;;;;;;;1.67;1.58;;;28.70;73.10;;;;;;5093941;28;20296;-80